sensor_id;sensor_type;location;lat;lon;timestamp;P1;durP1;ratioP1;P2;durP2;ratioP2
7729;SDS011;3908;52.310;7.230;2023-04-03T00:00:12;5.40;;;2.10;;
7729;SDS011;3908;52.310;7.230;2023-04-03T00:02:59;3.67;;;1.87;;
7729;SDS011;3908;52.310;7.230;2023-04-03T00:05:46;4.93;;;1.87;;
7729;SDS011;3908;52.310;7.230;2023-04-03T00:08:33;5.53;;;1.90;;
7729;SDS011;3908;52.310;7.230;2023-04-03T00:11:21;5.40;;;2.10;;
7729;SDS011;3908;52.310;7.230;2023-04-03T00:14:07;5.10;;;1.87;;
7729;SDS011;3908;52.310;7.230;2023-04-03T00:16:56;7.67;;;2.50;;
7729;SDS011;3908;52.310;7.230;2023-04-03T00:19:42;7.07;;;2.37;;
7729;SDS011;3908;52.310;7.230;2023-04-03T00:22:29;6.77;;;2.10;;
7729;SDS011;3908;52.310;7.230;2023-04-03T00:25:16;5.77;;;2.40;;
7729;SDS011;3908;52.310;7.230;2023-04-03T00:28:03;5.03;;;2.23;;
7729;SDS011;3908;52.310;7.230;2023-04-03T00:30:50;7.00;;;3.00;;
7729;SDS011;3908;52.310;7.230;2023-04-03T00:33:38;3.30;;;2.20;;
7729;SDS011;3908;52.310;7.230;2023-04-03T00:36:25;3.23;;;2.20;;
7729;SDS011;3908;52.310;7.230;2023-04-03T00:39:12;5.07;;;2.27;;
7729;SDS011;3908;52.310;7.230;2023-04-03T00:41:59;3.77;;;2.13;;
7729;SDS011;3908;52.310;7.230;2023-04-03T00:47:51;5.53;;;2.17;;
7729;SDS011;3908;52.310;7.230;2023-04-03T00:50:40;3.47;;;2.27;;
7729;SDS011;3908;52.310;7.230;2023-04-03T00:53:29;5.40;;;2.13;;
7729;SDS011;3908;52.310;7.230;2023-04-03T00:56:17;4.87;;;2.17;;
7729;SDS011;3908;52.310;7.230;2023-04-03T00:59:06;4.77;;;2.73;;
7729;SDS011;3908;52.310;7.230;2023-04-03T01:01:54;6.23;;;2.50;;
7729;SDS011;3908;52.310;7.230;2023-04-03T01:04:42;3.90;;;2.50;;
7729;SDS011;3908;52.310;7.230;2023-04-03T01:07:30;10.83;;;2.37;;
7729;SDS011;3908;52.310;7.230;2023-04-03T01:10:19;5.87;;;2.33;;
7729;SDS011;3908;52.310;7.230;2023-04-03T01:13:17;7.67;;;2.30;;
7729;SDS011;3908;52.310;7.230;2023-04-03T01:16:04;4.17;;;2.10;;
7729;SDS011;3908;52.310;7.230;2023-04-03T01:18:51;5.77;;;2.10;;
7729;SDS011;3908;52.310;7.230;2023-04-03T01:21:45;4.17;;;1.90;;
7729;SDS011;3908;52.310;7.230;2023-04-03T01:24:38;7.00;;;1.83;;
7729;SDS011;3908;52.310;7.230;2023-04-03T01:27:25;6.53;;;2.43;;
7729;SDS011;3908;52.310;7.230;2023-04-03T01:30:12;8.70;;;2.60;;
7729;SDS011;3908;52.310;7.230;2023-04-03T01:33:02;6.50;;;2.13;;
7729;SDS011;3908;52.310;7.230;2023-04-03T01:35:49;7.40;;;2.63;;
7729;SDS011;3908;52.310;7.230;2023-04-03T01:38:36;3.83;;;2.37;;
7729;SDS011;3908;52.310;7.230;2023-04-03T01:41:23;8.23;;;2.10;;
7729;SDS011;3908;52.310;7.230;2023-04-03T01:44:10;3.37;;;1.90;;
7729;SDS011;3908;52.310;7.230;2023-04-03T01:46:57;2.73;;;1.73;;
7729;SDS011;3908;52.310;7.230;2023-04-03T01:49:45;2.23;;;1.83;;
7729;SDS011;3908;52.310;7.230;2023-04-03T01:52:32;2.90;;;2.00;;
7729;SDS011;3908;52.310;7.230;2023-04-03T01:55:19;7.07;;;2.43;;
7729;SDS011;3908;52.310;7.230;2023-04-03T01:58:06;5.27;;;2.33;;
7729;SDS011;3908;52.310;7.230;2023-04-03T02:00:53;5.00;;;2.13;;
7729;SDS011;3908;52.310;7.230;2023-04-03T02:03:40;5.33;;;1.83;;
7729;SDS011;3908;52.310;7.230;2023-04-03T02:06:28;7.93;;;2.20;;
7729;SDS011;3908;52.310;7.230;2023-04-03T02:09:15;3.27;;;1.97;;
7729;SDS011;3908;52.310;7.230;2023-04-03T02:12:01;3.93;;;2.00;;
7729;SDS011;3908;52.310;7.230;2023-04-03T02:14:48;5.50;;;1.87;;
7729;SDS011;3908;52.310;7.230;2023-04-03T02:17:36;6.23;;;2.13;;
7729;SDS011;3908;52.310;7.230;2023-04-03T02:20:23;3.67;;;2.30;;
7729;SDS011;3908;52.310;7.230;2023-04-03T02:23:11;6.90;;;2.03;;
7729;SDS011;3908;52.310;7.230;2023-04-03T02:26:07;3.67;;;2.10;;
7729;SDS011;3908;52.310;7.230;2023-04-03T02:28:54;8.67;;;2.27;;
7729;SDS011;3908;52.310;7.230;2023-04-03T02:31:41;3.00;;;2.13;;
7729;SDS011;3908;52.310;7.230;2023-04-03T02:34:28;4.97;;;2.43;;
7729;SDS011;3908;52.310;7.230;2023-04-03T02:37:15;5.70;;;2.63;;
7729;SDS011;3908;52.310;7.230;2023-04-03T02:40:04;4.60;;;2.43;;
7729;SDS011;3908;52.310;7.230;2023-04-03T02:42:51;4.13;;;2.10;;
7729;SDS011;3908;52.310;7.230;2023-04-03T02:45:38;3.27;;;2.37;;
7729;SDS011;3908;52.310;7.230;2023-04-03T02:48:25;4.53;;;2.07;;
7729;SDS011;3908;52.310;7.230;2023-04-03T02:51:12;4.30;;;2.47;;
7729;SDS011;3908;52.310;7.230;2023-04-03T02:53:58;6.60;;;2.97;;
7729;SDS011;3908;52.310;7.230;2023-04-03T02:56:47;4.17;;;2.10;;
7729;SDS011;3908;52.310;7.230;2023-04-03T02:59:33;3.57;;;2.83;;
7729;SDS011;3908;52.310;7.230;2023-04-03T03:02:20;5.37;;;1.87;;
7729;SDS011;3908;52.310;7.230;2023-04-03T03:05:07;4.77;;;2.37;;
7729;SDS011;3908;52.310;7.230;2023-04-03T03:07:54;5.20;;;2.20;;
7729;SDS011;3908;52.310;7.230;2023-04-03T03:10:41;5.03;;;2.37;;
7729;SDS011;3908;52.310;7.230;2023-04-03T03:13:29;3.60;;;1.70;;
7729;SDS011;3908;52.310;7.230;2023-04-03T03:16:16;4.93;;;2.00;;
7729;SDS011;3908;52.310;7.230;2023-04-03T03:19:03;3.30;;;2.33;;
7729;SDS011;3908;52.310;7.230;2023-04-03T03:21:52;4.97;;;2.40;;
7729;SDS011;3908;52.310;7.230;2023-04-03T03:24:38;10.63;;;2.60;;
7729;SDS011;3908;52.310;7.230;2023-04-03T03:27:25;4.00;;;1.93;;
7729;SDS011;3908;52.310;7.230;2023-04-03T03:30:14;4.57;;;2.40;;
7729;SDS011;3908;52.310;7.230;2023-04-03T03:33:00;2.40;;;1.80;;
7729;SDS011;3908;52.310;7.230;2023-04-03T03:35:47;6.77;;;2.73;;
7729;SDS011;3908;52.310;7.230;2023-04-03T03:38:34;4.57;;;2.00;;
7729;SDS011;3908;52.310;7.230;2023-04-03T03:41:21;5.90;;;2.53;;
7729;SDS011;3908;52.310;7.230;2023-04-03T03:44:08;2.30;;;2.10;;
7729;SDS011;3908;52.310;7.230;2023-04-03T03:46:56;2.53;;;2.30;;
7729;SDS011;3908;52.310;7.230;2023-04-03T03:49:43;5.43;;;2.30;;
7729;SDS011;3908;52.310;7.230;2023-04-03T03:52:30;4.70;;;2.50;;
7729;SDS011;3908;52.310;7.230;2023-04-03T03:55:17;5.77;;;2.13;;
7729;SDS011;3908;52.310;7.230;2023-04-03T03:58:04;3.67;;;2.37;;
7729;SDS011;3908;52.310;7.230;2023-04-03T04:00:51;4.20;;;2.27;;
7729;SDS011;3908;52.310;7.230;2023-04-03T04:03:39;4.07;;;2.37;;
7729;SDS011;3908;52.310;7.230;2023-04-03T04:06:26;8.93;;;2.83;;
7729;SDS011;3908;52.310;7.230;2023-04-03T04:09:12;7.20;;;2.93;;
7729;SDS011;3908;52.310;7.230;2023-04-03T04:11:59;3.60;;;2.13;;
7729;SDS011;3908;52.310;7.230;2023-04-03T04:14:46;5.33;;;2.30;;
7729;SDS011;3908;52.310;7.230;2023-04-03T04:17:33;4.90;;;2.30;;
7729;SDS011;3908;52.310;7.230;2023-04-03T04:20:23;7.67;;;2.27;;
7729;SDS011;3908;52.310;7.230;2023-04-03T04:23:10;5.23;;;2.80;;
7729;SDS011;3908;52.310;7.230;2023-04-03T04:25:57;11.00;;;2.63;;
7729;SDS011;3908;52.310;7.230;2023-04-03T04:28:44;4.83;;;2.00;;
7729;SDS011;3908;52.310;7.230;2023-04-03T04:31:31;4.30;;;2.03;;
7729;SDS011;3908;52.310;7.230;2023-04-03T04:34:17;7.43;;;2.30;;
7729;SDS011;3908;52.310;7.230;2023-04-03T04:37:06;7.63;;;2.50;;
7729;SDS011;3908;52.310;7.230;2023-04-03T04:39:52;5.77;;;2.60;;
7729;SDS011;3908;52.310;7.230;2023-04-03T04:42:39;4.70;;;2.30;;
7729;SDS011;3908;52.310;7.230;2023-04-03T04:45:26;7.17;;;2.27;;
7729;SDS011;3908;52.310;7.230;2023-04-03T04:48:13;9.53;;;3.23;;
7729;SDS011;3908;52.310;7.230;2023-04-03T04:51:00;3.90;;;2.23;;
7729;SDS011;3908;52.310;7.230;2023-04-03T04:53:48;3.37;;;2.13;;
7729;SDS011;3908;52.310;7.230;2023-04-03T04:56:35;4.53;;;2.87;;
7729;SDS011;3908;52.310;7.230;2023-04-03T04:59:22;5.57;;;2.30;;
7729;SDS011;3908;52.310;7.230;2023-04-03T05:02:09;4.83;;;2.40;;
7729;SDS011;3908;52.310;7.230;2023-04-03T05:04:56;4.47;;;2.20;;
7729;SDS011;3908;52.310;7.230;2023-04-03T05:07:43;7.23;;;2.47;;
7729;SDS011;3908;52.310;7.230;2023-04-03T05:10:31;5.07;;;2.73;;
7729;SDS011;3908;52.310;7.230;2023-04-03T05:13:18;4.57;;;2.30;;
7729;SDS011;3908;52.310;7.230;2023-04-03T05:16:05;8.23;;;2.33;;
7729;SDS011;3908;52.310;7.230;2023-04-03T05:18:52;5.50;;;2.40;;
7729;SDS011;3908;52.310;7.230;2023-04-03T05:21:39;3.77;;;2.27;;
7729;SDS011;3908;52.310;7.230;2023-04-03T05:24:26;6.47;;;2.37;;
7729;SDS011;3908;52.310;7.230;2023-04-03T05:27:14;6.63;;;2.53;;
7729;SDS011;3908;52.310;7.230;2023-04-03T05:30:02;4.40;;;2.70;;
7729;SDS011;3908;52.310;7.230;2023-04-03T05:32:49;3.23;;;2.20;;
7729;SDS011;3908;52.310;7.230;2023-04-03T05:35:36;8.17;;;2.47;;
7729;SDS011;3908;52.310;7.230;2023-04-03T05:38:24;4.10;;;2.53;;
7729;SDS011;3908;52.310;7.230;2023-04-03T05:41:11;9.10;;;2.80;;
7729;SDS011;3908;52.310;7.230;2023-04-03T05:43:59;4.40;;;2.40;;
7729;SDS011;3908;52.310;7.230;2023-04-03T05:46:46;5.40;;;2.10;;
7729;SDS011;3908;52.310;7.230;2023-04-03T05:49:32;6.30;;;2.37;;
7729;SDS011;3908;52.310;7.230;2023-04-03T05:52:20;5.07;;;2.87;;
7729;SDS011;3908;52.310;7.230;2023-04-03T05:55:08;4.53;;;2.40;;
7729;SDS011;3908;52.310;7.230;2023-04-03T05:57:55;6.27;;;2.07;;
7729;SDS011;3908;52.310;7.230;2023-04-03T06:00:43;5.80;;;2.70;;
7729;SDS011;3908;52.310;7.230;2023-04-03T06:03:30;12.63;;;3.10;;
7729;SDS011;3908;52.310;7.230;2023-04-03T06:06:17;8.63;;;2.50;;
7729;SDS011;3908;52.310;7.230;2023-04-03T06:09:04;4.37;;;2.17;;
7729;SDS011;3908;52.310;7.230;2023-04-03T06:11:51;3.37;;;2.40;;
7729;SDS011;3908;52.310;7.230;2023-04-03T06:14:38;2.80;;;2.03;;
7729;SDS011;3908;52.310;7.230;2023-04-03T06:17:26;4.20;;;2.43;;
7729;SDS011;3908;52.310;7.230;2023-04-03T06:20:13;6.80;;;2.63;;
7729;SDS011;3908;52.310;7.230;2023-04-03T06:22:59;6.97;;;2.40;;
7729;SDS011;3908;52.310;7.230;2023-04-03T06:25:46;3.47;;;2.10;;
7729;SDS011;3908;52.310;7.230;2023-04-03T06:28:33;6.73;;;2.53;;
7729;SDS011;3908;52.310;7.230;2023-04-03T06:31:20;5.53;;;2.23;;
7729;SDS011;3908;52.310;7.230;2023-04-03T06:34:08;5.47;;;2.50;;
7729;SDS011;3908;52.310;7.230;2023-04-03T06:36:56;6.80;;;2.40;;
7729;SDS011;3908;52.310;7.230;2023-04-03T06:39:43;5.00;;;2.30;;
7729;SDS011;3908;52.310;7.230;2023-04-03T06:42:30;6.60;;;2.23;;
7729;SDS011;3908;52.310;7.230;2023-04-03T06:45:17;6.77;;;2.50;;
7729;SDS011;3908;52.310;7.230;2023-04-03T06:48:04;7.33;;;2.10;;
7729;SDS011;3908;52.310;7.230;2023-04-03T06:50:53;4.43;;;2.20;;
7729;SDS011;3908;52.310;7.230;2023-04-03T06:53:40;2.43;;;1.70;;
7729;SDS011;3908;52.310;7.230;2023-04-03T06:56:27;8.17;;;2.13;;
7729;SDS011;3908;52.310;7.230;2023-04-03T06:59:13;4.97;;;2.20;;
7729;SDS011;3908;52.310;7.230;2023-04-03T07:02:01;10.93;;;2.17;;
7729;SDS011;3908;52.310;7.230;2023-04-03T07:04:48;2.60;;;1.70;;
7729;SDS011;3908;52.310;7.230;2023-04-03T07:07:36;3.30;;;1.90;;
7729;SDS011;3908;52.310;7.230;2023-04-03T07:10:23;3.67;;;1.90;;
7729;SDS011;3908;52.310;7.230;2023-04-03T07:13:10;6.30;;;2.17;;
7729;SDS011;3908;52.310;7.230;2023-04-03T07:15:57;3.97;;;1.83;;
7729;SDS011;3908;52.310;7.230;2023-04-03T07:29:06;10.20;;;1.97;;
7729;SDS011;3908;52.310;7.230;2023-04-03T07:31:54;8.13;;;2.00;;
7729;SDS011;3908;52.310;7.230;2023-04-03T07:34:42;5.57;;;1.87;;
7729;SDS011;3908;52.310;7.230;2023-04-03T07:45:00;3.97;;;1.63;;
7729;SDS011;3908;52.310;7.230;2023-04-03T07:47:47;3.17;;;1.50;;
7729;SDS011;3908;52.310;7.230;2023-04-03T07:50:34;3.93;;;1.63;;
7729;SDS011;3908;52.310;7.230;2023-04-03T07:53:21;8.53;;;1.90;;
7729;SDS011;3908;52.310;7.230;2023-04-03T07:56:08;3.93;;;1.60;;
7729;SDS011;3908;52.310;7.230;2023-04-03T07:58:55;4.57;;;1.53;;
7729;SDS011;3908;52.310;7.230;2023-04-03T08:01:44;3.40;;;1.70;;
7729;SDS011;3908;52.310;7.230;2023-04-03T08:04:30;4.80;;;1.80;;
7729;SDS011;3908;52.310;7.230;2023-04-03T08:07:17;2.47;;;1.63;;
7729;SDS011;3908;52.310;7.230;2023-04-03T08:10:04;6.27;;;1.63;;
7729;SDS011;3908;52.310;7.230;2023-04-03T08:12:51;2.13;;;1.30;;
7729;SDS011;3908;52.310;7.230;2023-04-03T08:15:38;2.13;;;1.57;;
7729;SDS011;3908;52.310;7.230;2023-04-03T08:18:26;3.90;;;1.70;;
7729;SDS011;3908;52.310;7.230;2023-04-03T08:21:13;3.03;;;1.40;;
7729;SDS011;3908;52.310;7.230;2023-04-03T08:24:01;3.80;;;1.40;;
7729;SDS011;3908;52.310;7.230;2023-04-03T08:26:48;4.50;;;1.60;;
7729;SDS011;3908;52.310;7.230;2023-04-03T08:29:35;3.83;;;1.50;;
7729;SDS011;3908;52.310;7.230;2023-04-03T08:32:23;1.90;;;1.20;;
7729;SDS011;3908;52.310;7.230;2023-04-03T08:35:11;3.33;;;1.70;;
7729;SDS011;3908;52.310;7.230;2023-04-03T08:37:58;4.00;;;1.57;;
7729;SDS011;3908;52.310;7.230;2023-04-03T08:40:46;2.53;;;1.30;;
7729;SDS011;3908;52.310;7.230;2023-04-03T08:43:35;2.87;;;1.47;;
7729;SDS011;3908;52.310;7.230;2023-04-03T08:46:26;5.33;;;1.93;;
7729;SDS011;3908;52.310;7.230;2023-04-03T08:49:19;6.20;;;1.40;;
7729;SDS011;3908;52.310;7.230;2023-04-03T08:52:10;4.47;;;1.53;;
7729;SDS011;3908;52.310;7.230;2023-04-03T08:54:58;2.40;;;1.00;;
7729;SDS011;3908;52.310;7.230;2023-04-03T08:57:46;3.47;;;1.10;;
7729;SDS011;3908;52.310;7.230;2023-04-03T09:00:38;2.43;;;1.10;;
7729;SDS011;3908;52.310;7.230;2023-04-03T09:03:29;2.27;;;1.27;;
7729;SDS011;3908;52.310;7.230;2023-04-03T09:06:17;1.60;;;1.27;;
7729;SDS011;3908;52.310;7.230;2023-04-03T09:09:10;6.43;;;1.53;;
7729;SDS011;3908;52.310;7.230;2023-04-03T09:12:00;1.90;;;1.10;;
7729;SDS011;3908;52.310;7.230;2023-04-03T09:14:57;1.37;;;1.20;;
7729;SDS011;3908;52.310;7.230;2023-04-03T09:17:53;5.30;;;1.50;;
7729;SDS011;3908;52.310;7.230;2023-04-03T09:20:45;1.60;;;1.20;;
7729;SDS011;3908;52.310;7.230;2023-04-03T09:23:33;1.77;;;1.30;;
7729;SDS011;3908;52.310;7.230;2023-04-03T09:26:24;1.40;;;1.10;;
7729;SDS011;3908;52.310;7.230;2023-04-03T09:29:14;2.00;;;1.20;;
7729;SDS011;3908;52.310;7.230;2023-04-03T09:32:02;2.70;;;1.30;;
7729;SDS011;3908;52.310;7.230;2023-04-03T09:34:55;4.40;;;1.20;;
7729;SDS011;3908;52.310;7.230;2023-04-03T09:37:43;1.50;;;1.20;;
7729;SDS011;3908;52.310;7.230;2023-04-03T09:40:32;3.47;;;1.20;;
7729;SDS011;3908;52.310;7.230;2023-04-03T09:43:26;2.60;;;1.10;;
7729;SDS011;3908;52.310;7.230;2023-04-03T09:46:17;2.03;;;1.07;;
7729;SDS011;3908;52.310;7.230;2023-04-03T09:49:04;3.53;;;1.23;;
7729;SDS011;3908;52.310;7.230;2023-04-03T09:51:52;1.00;;;0.90;;
7729;SDS011;3908;52.310;7.230;2023-04-03T09:54:39;7.23;;;1.17;;
7729;SDS011;3908;52.310;7.230;2023-04-03T09:57:28;1.97;;;1.30;;
7729;SDS011;3908;52.310;7.230;2023-04-03T10:00:23;2.80;;;1.20;;
7729;SDS011;3908;52.310;7.230;2023-04-03T10:03:22;3.43;;;1.20;;
7729;SDS011;3908;52.310;7.230;2023-04-03T10:06:20;3.47;;;1.10;;
7729;SDS011;3908;52.310;7.230;2023-04-03T10:09:15;2.43;;;1.07;;
7729;SDS011;3908;52.310;7.230;2023-04-03T10:12:03;3.37;;;1.27;;
7729;SDS011;3908;52.310;7.230;2023-04-03T10:14:55;2.13;;;1.20;;
7729;SDS011;3908;52.310;7.230;2023-04-03T10:17:49;3.23;;;1.10;;
7729;SDS011;3908;52.310;7.230;2023-04-03T10:20:39;1.83;;;1.00;;
7729;SDS011;3908;52.310;7.230;2023-04-03T10:23:27;1.60;;;1.30;;
7729;SDS011;3908;52.310;7.230;2023-04-03T10:26:22;2.43;;;1.17;;
7729;SDS011;3908;52.310;7.230;2023-04-03T10:29:16;2.57;;;1.13;;
7729;SDS011;3908;52.310;7.230;2023-04-03T10:32:10;2.50;;;1.07;;
7729;SDS011;3908;52.310;7.230;2023-04-03T10:35:02;2.17;;;1.40;;
7729;SDS011;3908;52.310;7.230;2023-04-03T10:37:57;2.70;;;1.27;;
7729;SDS011;3908;52.310;7.230;2023-04-03T10:40:49;2.67;;;1.30;;
7729;SDS011;3908;52.310;7.230;2023-04-03T10:43:39;3.33;;;1.37;;
7729;SDS011;3908;52.310;7.230;2023-04-03T10:46:31;5.60;;;1.27;;
7729;SDS011;3908;52.310;7.230;2023-04-03T10:49:27;2.23;;;1.00;;
7729;SDS011;3908;52.310;7.230;2023-04-03T10:52:20;1.67;;;0.90;;
7729;SDS011;3908;52.310;7.230;2023-04-03T10:55:14;2.63;;;1.30;;
7729;SDS011;3908;52.310;7.230;2023-04-03T10:58:08;3.63;;;1.20;;
7729;SDS011;3908;52.310;7.230;2023-04-03T11:01:01;3.57;;;1.40;;
7729;SDS011;3908;52.310;7.230;2023-04-03T11:03:49;1.80;;;1.27;;
7729;SDS011;3908;52.310;7.230;2023-04-03T11:06:39;4.50;;;1.30;;
7729;SDS011;3908;52.310;7.230;2023-04-03T11:09:30;3.03;;;1.50;;
7729;SDS011;3908;52.310;7.230;2023-04-03T11:12:18;2.13;;;1.43;;
7729;SDS011;3908;52.310;7.230;2023-04-03T11:15:11;4.37;;;1.40;;
7729;SDS011;3908;52.310;7.230;2023-04-03T11:18:00;3.70;;;1.37;;
7729;SDS011;3908;52.310;7.230;2023-04-03T11:20:50;3.33;;;1.33;;
7729;SDS011;3908;52.310;7.230;2023-04-03T11:23:40;2.50;;;1.33;;
7729;SDS011;3908;52.310;7.230;2023-04-03T11:26:29;2.97;;;1.10;;
7729;SDS011;3908;52.310;7.230;2023-04-03T11:29:18;2.90;;;1.23;;
7729;SDS011;3908;52.310;7.230;2023-04-03T11:32:09;2.10;;;1.20;;
7729;SDS011;3908;52.310;7.230;2023-04-03T11:34:59;5.13;;;1.30;;
7729;SDS011;3908;52.310;7.230;2023-04-03T11:37:47;3.40;;;1.87;;
7729;SDS011;3908;52.310;7.230;2023-04-03T11:40:36;2.67;;;1.50;;
7729;SDS011;3908;52.310;7.230;2023-04-03T11:43:26;2.37;;;1.57;;
7729;SDS011;3908;52.310;7.230;2023-04-03T11:46:15;2.10;;;1.17;;
7729;SDS011;3908;52.310;7.230;2023-04-03T11:49:04;3.27;;;1.30;;
7729;SDS011;3908;52.310;7.230;2023-04-03T11:51:51;2.93;;;1.60;;
7729;SDS011;3908;52.310;7.230;2023-04-03T11:54:45;7.33;;;1.73;;
7729;SDS011;3908;52.310;7.230;2023-04-03T11:57:45;2.20;;;1.37;;
7729;SDS011;3908;52.310;7.230;2023-04-03T12:00:48;1.70;;;1.27;;
7729;SDS011;3908;52.310;7.230;2023-04-03T12:09:53;3.37;;;1.70;;
7729;SDS011;3908;52.310;7.230;2023-04-03T12:12:40;7.30;;;1.63;;
7729;SDS011;3908;52.310;7.230;2023-04-03T12:24:39;2.73;;;1.50;;
7729;SDS011;3908;52.310;7.230;2023-04-03T12:27:28;5.10;;;1.60;;
7729;SDS011;3908;52.310;7.230;2023-04-03T12:30:20;4.30;;;1.70;;
7729;SDS011;3908;52.310;7.230;2023-04-03T12:33:14;2.93;;;1.07;;
7729;SDS011;3908;52.310;7.230;2023-04-03T12:36:05;2.57;;;1.40;;
7729;SDS011;3908;52.310;7.230;2023-04-03T12:38:57;5.63;;;1.40;;
7729;SDS011;3908;52.310;7.230;2023-04-03T12:41:50;2.20;;;1.27;;
7729;SDS011;3908;52.310;7.230;2023-04-03T12:44:41;4.33;;;1.43;;
7729;SDS011;3908;52.310;7.230;2023-04-03T12:47:32;4.60;;;1.57;;
7729;SDS011;3908;52.310;7.230;2023-04-03T12:50:22;2.67;;;1.50;;
7729;SDS011;3908;52.310;7.230;2023-04-03T12:53:11;3.93;;;1.33;;
7729;SDS011;3908;52.310;7.230;2023-04-03T12:59:16;3.87;;;1.30;;
7729;SDS011;3908;52.310;7.230;2023-04-03T13:02:03;1.33;;;1.00;;
7729;SDS011;3908;52.310;7.230;2023-04-03T13:04:57;2.90;;;1.63;;
7729;SDS011;3908;52.310;7.230;2023-04-03T13:07:45;4.07;;;1.20;;
7729;SDS011;3908;52.310;7.230;2023-04-03T13:10:42;3.40;;;1.70;;
7729;SDS011;3908;52.310;7.230;2023-04-03T13:13:30;6.60;;;1.63;;
7729;SDS011;3908;52.310;7.230;2023-04-03T13:16:18;3.07;;;1.40;;
7729;SDS011;3908;52.310;7.230;2023-04-03T13:19:05;4.00;;;1.50;;
7729;SDS011;3908;52.310;7.230;2023-04-03T13:21:53;3.97;;;1.40;;
7729;SDS011;3908;52.310;7.230;2023-04-03T13:24:40;2.43;;;1.30;;
7729;SDS011;3908;52.310;7.230;2023-04-03T13:27:28;2.10;;;1.43;;
7729;SDS011;3908;52.310;7.230;2023-04-03T13:30:20;3.17;;;1.43;;
7729;SDS011;3908;52.310;7.230;2023-04-03T13:33:20;3.23;;;1.53;;
7729;SDS011;3908;52.310;7.230;2023-04-03T13:36:08;1.47;;;1.10;;
7729;SDS011;3908;52.310;7.230;2023-04-03T13:39:00;3.60;;;1.27;;
7729;SDS011;3908;52.310;7.230;2023-04-03T13:41:47;3.10;;;1.53;;
7729;SDS011;3908;52.310;7.230;2023-04-03T13:44:35;2.43;;;1.40;;
7729;SDS011;3908;52.310;7.230;2023-04-03T13:47:23;2.13;;;1.50;;
7729;SDS011;3908;52.310;7.230;2023-04-03T13:50:16;1.90;;;1.30;;
7729;SDS011;3908;52.310;7.230;2023-04-03T13:53:08;3.00;;;1.37;;
7729;SDS011;3908;52.310;7.230;2023-04-03T13:55:57;1.87;;;1.17;;
7729;SDS011;3908;52.310;7.230;2023-04-03T13:58:52;3.87;;;1.10;;
7729;SDS011;3908;52.310;7.230;2023-04-03T14:01:42;4.20;;;1.70;;
7729;SDS011;3908;52.310;7.230;2023-04-03T14:04:30;2.40;;;1.30;;
7729;SDS011;3908;52.310;7.230;2023-04-03T14:07:19;3.80;;;1.40;;
7729;SDS011;3908;52.310;7.230;2023-04-03T14:10:07;2.73;;;1.33;;
7729;SDS011;3908;52.310;7.230;2023-04-03T14:12:53;2.90;;;1.40;;
7729;SDS011;3908;52.310;7.230;2023-04-03T14:15:41;3.90;;;1.60;;
7729;SDS011;3908;52.310;7.230;2023-04-03T14:18:27;1.50;;;1.40;;
7729;SDS011;3908;52.310;7.230;2023-04-03T14:21:15;2.13;;;1.20;;
7729;SDS011;3908;52.310;7.230;2023-04-03T14:24:03;2.87;;;1.27;;
7729;SDS011;3908;52.310;7.230;2023-04-03T14:26:52;2.63;;;1.33;;
7729;SDS011;3908;52.310;7.230;2023-04-03T14:29:39;5.13;;;1.43;;
7729;SDS011;3908;52.310;7.230;2023-04-03T14:32:26;3.07;;;1.30;;
7729;SDS011;3908;52.310;7.230;2023-04-03T14:35:14;2.87;;;1.33;;
7729;SDS011;3908;52.310;7.230;2023-04-03T14:38:01;4.43;;;1.37;;
7729;SDS011;3908;52.310;7.230;2023-04-03T14:40:49;3.47;;;1.30;;
7729;SDS011;3908;52.310;7.230;2023-04-03T14:43:36;2.67;;;1.53;;
7729;SDS011;3908;52.310;7.230;2023-04-03T14:46:26;5.50;;;1.50;;
7729;SDS011;3908;52.310;7.230;2023-04-03T14:49:13;2.63;;;1.30;;
7729;SDS011;3908;52.310;7.230;2023-04-03T14:52:00;2.33;;;1.20;;
7729;SDS011;3908;52.310;7.230;2023-04-03T14:54:47;4.43;;;1.50;;
7729;SDS011;3908;52.310;7.230;2023-04-03T14:57:35;2.97;;;1.60;;
7729;SDS011;3908;52.310;7.230;2023-04-03T15:00:24;1.97;;;1.37;;
7729;SDS011;3908;52.310;7.230;2023-04-03T15:03:12;3.37;;;1.20;;
7729;SDS011;3908;52.310;7.230;2023-04-03T15:06:00;2.67;;;1.27;;
7729;SDS011;3908;52.310;7.230;2023-04-03T15:08:47;3.90;;;1.57;;
7729;SDS011;3908;52.310;7.230;2023-04-03T15:11:34;2.40;;;1.47;;
7729;SDS011;3908;52.310;7.230;2023-04-03T15:14:22;1.67;;;1.20;;
7729;SDS011;3908;52.310;7.230;2023-04-03T15:17:10;3.93;;;1.40;;
7729;SDS011;3908;52.310;7.230;2023-04-03T15:20:00;2.30;;;1.50;;
7729;SDS011;3908;52.310;7.230;2023-04-03T15:22:47;2.70;;;1.47;;
7729;SDS011;3908;52.310;7.230;2023-04-03T15:25:34;2.70;;;1.53;;
7729;SDS011;3908;52.310;7.230;2023-04-03T15:28:22;3.47;;;1.47;;
7729;SDS011;3908;52.310;7.230;2023-04-03T15:31:11;3.00;;;1.30;;
7729;SDS011;3908;52.310;7.230;2023-04-03T15:33:57;1.60;;;1.17;;
7729;SDS011;3908;52.310;7.230;2023-04-03T15:36:46;2.83;;;1.23;;
7729;SDS011;3908;52.310;7.230;2023-04-03T15:39:32;4.93;;;1.20;;
7729;SDS011;3908;52.310;7.230;2023-04-03T15:42:19;2.73;;;1.50;;
7729;SDS011;3908;52.310;7.230;2023-04-03T15:45:07;2.63;;;1.60;;
7729;SDS011;3908;52.310;7.230;2023-04-03T15:47:55;4.80;;;1.53;;
7729;SDS011;3908;52.310;7.230;2023-04-03T15:50:42;2.77;;;1.50;;
7729;SDS011;3908;52.310;7.230;2023-04-03T15:53:28;5.50;;;1.47;;
7729;SDS011;3908;52.310;7.230;2023-04-03T15:56:15;6.20;;;1.70;;
7729;SDS011;3908;52.310;7.230;2023-04-03T15:59:02;5.20;;;1.23;;
7729;SDS011;3908;52.310;7.230;2023-04-03T16:01:49;2.90;;;1.40;;
7729;SDS011;3908;52.310;7.230;2023-04-03T16:04:38;3.53;;;1.60;;
7729;SDS011;3908;52.310;7.230;2023-04-03T16:07:25;1.90;;;1.27;;
7729;SDS011;3908;52.310;7.230;2023-04-03T16:10:13;2.40;;;1.57;;
7729;SDS011;3908;52.310;7.230;2023-04-03T16:13:00;4.07;;;1.50;;
7729;SDS011;3908;52.310;7.230;2023-04-03T16:15:47;3.27;;;1.50;;
7729;SDS011;3908;52.310;7.230;2023-04-03T16:18:35;3.20;;;1.60;;
7729;SDS011;3908;52.310;7.230;2023-04-03T16:21:23;2.03;;;1.40;;
7729;SDS011;3908;52.310;7.230;2023-04-03T16:24:10;2.93;;;1.57;;
7729;SDS011;3908;52.310;7.230;2023-04-03T16:26:57;3.63;;;1.30;;
7729;SDS011;3908;52.310;7.230;2023-04-03T16:29:44;2.30;;;1.30;;
7729;SDS011;3908;52.310;7.230;2023-04-03T16:32:31;4.10;;;1.50;;
7729;SDS011;3908;52.310;7.230;2023-04-03T16:35:18;1.87;;;1.27;;
7729;SDS011;3908;52.310;7.230;2023-04-03T16:38:06;2.00;;;1.30;;
7729;SDS011;3908;52.310;7.230;2023-04-03T16:40:53;1.60;;;1.50;;
7729;SDS011;3908;52.310;7.230;2023-04-03T16:43:42;2.13;;;1.30;;
7729;SDS011;3908;52.310;7.230;2023-04-03T16:46:28;7.43;;;1.30;;
7729;SDS011;3908;52.310;7.230;2023-04-03T16:49:15;3.70;;;1.80;;
7729;SDS011;3908;52.310;7.230;2023-04-03T16:52:02;3.00;;;1.57;;
7729;SDS011;3908;52.310;7.230;2023-04-03T16:54:51;6.43;;;2.17;;
7729;SDS011;3908;52.310;7.230;2023-04-03T16:57:40;1.90;;;1.17;;
7729;SDS011;3908;52.310;7.230;2023-04-03T17:00:27;3.23;;;1.60;;
7729;SDS011;3908;52.310;7.230;2023-04-03T17:03:14;2.27;;;1.40;;
7729;SDS011;3908;52.310;7.230;2023-04-03T17:06:01;2.03;;;1.30;;
7729;SDS011;3908;52.310;7.230;2023-04-03T17:08:48;2.63;;;1.40;;
7729;SDS011;3908;52.310;7.230;2023-04-03T17:11:36;2.77;;;1.70;;
7729;SDS011;3908;52.310;7.230;2023-04-03T17:14:24;2.33;;;2.00;;
7729;SDS011;3908;52.310;7.230;2023-04-03T17:17:11;1.90;;;1.30;;
7729;SDS011;3908;52.310;7.230;2023-04-03T17:19:58;2.83;;;1.60;;
7729;SDS011;3908;52.310;7.230;2023-04-03T17:22:44;4.60;;;1.70;;
7729;SDS011;3908;52.310;7.230;2023-04-03T17:25:31;2.73;;;1.33;;
7729;SDS011;3908;52.310;7.230;2023-04-03T17:28:19;2.00;;;1.40;;
7729;SDS011;3908;52.310;7.230;2023-04-03T17:31:12;1.90;;;1.57;;
7729;SDS011;3908;52.310;7.230;2023-04-03T17:33:59;5.07;;;1.80;;
7729;SDS011;3908;52.310;7.230;2023-04-03T17:36:47;4.50;;;1.60;;
7729;SDS011;3908;52.310;7.230;2023-04-03T17:39:34;1.50;;;1.30;;
7729;SDS011;3908;52.310;7.230;2023-04-03T17:42:21;2.90;;;1.27;;
7729;SDS011;3908;52.310;7.230;2023-04-03T17:45:10;4.60;;;1.60;;
7729;SDS011;3908;52.310;7.230;2023-04-03T17:47:57;2.90;;;1.60;;
7729;SDS011;3908;52.310;7.230;2023-04-03T17:50:44;2.67;;;1.80;;
7729;SDS011;3908;52.310;7.230;2023-04-03T17:53:31;2.60;;;1.33;;
7729;SDS011;3908;52.310;7.230;2023-04-03T17:56:18;2.37;;;1.53;;
7729;SDS011;3908;52.310;7.230;2023-04-03T17:59:06;2.17;;;1.47;;
7729;SDS011;3908;52.310;7.230;2023-04-03T18:01:54;4.27;;;1.57;;
7729;SDS011;3908;52.310;7.230;2023-04-03T18:04:41;3.30;;;1.40;;